Cherkasy, Ukraine
Current Conditions -  °F | °C
As of 4:30 PM on Saturday 25 Oct 2014 (Local Time) from UKBB Reporting Station
Clear Clear  
Wind Chill: 29°   Ceiling: Unl
Heat Index: 36°   Visibility: 6mi
Dew Point: 14°   Wind: 9mph
Humidity: 41%   Direction: 100°E
Pressure: 30.59"   Gusts: NA
Location:  49.43°N, 32.07°E
Report Text: UKBB 251330Z 10004MPS CAVOK 02/M10 Q1036 18190065 68CLRD95 NOSIG
Loading
Personal Weather Stations






























Interactive Weather Map
Tropical Storm Tracking
New forecast layout! Learn more

10-Day Weather Forecast

Advertisements
Track Severe Weather on mobile